createdAt,value
2017-09-12T00:01:09.266Z,69.00
2017-09-12T00:03:37.824Z,118.30
2017-09-12T00:06:06.366Z,94.33
2017-09-12T00:08:35.992Z,108.73
2017-09-12T00:11:04.032Z,127.47
2017-09-12T00:13:33.239Z,90.93
2017-09-12T00:16:02.628Z,72.03
2017-09-12T00:18:31.314Z,58.93
2017-09-12T00:20:59.987Z,79.03
2017-09-12T00:23:28.687Z,79.80
2017-09-12T00:25:57.316Z,54.03
2017-09-12T00:28:26.051Z,62.03
2017-09-12T00:30:55.147Z,49.80
2017-09-12T00:33:23.375Z,67.67
2017-09-12T00:35:52.059Z,78.70
2017-09-12T00:38:21.006Z,65.23
2017-09-12T00:40:49.791Z,52.80
2017-09-12T00:43:18.570Z,67.13
2017-09-12T00:45:47.283Z,62.27
2017-09-12T00:48:16.019Z,60.33
2017-09-12T00:50:44.747Z,69.03
2017-09-12T00:53:13.952Z,50.30
2017-09-12T00:55:43.047Z,66.80
2017-09-12T00:58:13.471Z,58.13
2017-09-12T01:00:42.770Z,49.83
2017-09-12T01:03:11.563Z,59.33
2017-09-12T01:05:40.352Z,50.50
2017-09-12T01:08:08.715Z,32.23
2017-09-12T01:10:37.426Z,45.23
2017-09-12T01:13:06.106Z,44.83
2017-09-12T01:15:35.091Z,34.20
2017-09-12T01:18:03.714Z,33.70
2017-09-12T01:20:33.292Z,35.00
2017-09-12T01:23:01.995Z,30.67
2017-09-12T01:25:30.667Z,30.33
2017-09-12T01:27:59.363Z,25.53
2017-09-12T01:30:28.252Z,30.37
2017-09-12T01:32:57.133Z,26.47
2017-09-12T01:35:25.759Z,29.47
2017-09-12T01:37:55.543Z,26.03
2017-09-12T01:40:24.279Z,24.77
2017-09-12T01:42:52.868Z,23.13
2017-09-12T01:45:21.759Z,21.23
2017-09-12T01:47:50.398Z,33.37
2017-09-12T01:50:19.283Z,29.03
2017-09-12T01:52:48.486Z,34.10
2017-09-12T01:55:19.019Z,26.10
2017-09-12T01:57:48.527Z,25.83
2017-09-12T02:00:17.211Z,24.97
2017-09-12T02:02:45.999Z,37.73
2017-09-12T02:05:15.039Z,30.53
2017-09-12T02:07:43.867Z,28.63
2017-09-12T02:10:12.663Z,32.67
2017-09-12T02:12:41.304Z,29.83
2017-09-12T02:15:10.056Z,26.90
2017-09-12T02:17:38.734Z,31.60
2017-09-12T02:20:07.832Z,31.30
2017-09-12T02:22:36.722Z,34.30
2017-09-12T02:25:04.971Z,28.40
2017-09-12T02:27:33.292Z,27.33
2017-09-12T02:30:01.526Z,36.20
2017-09-12T02:32:29.763Z,34.03
2017-09-12T02:34:58.251Z,27.60
2017-09-12T02:37:27.404Z,35.07
2017-09-12T02:39:55.651Z,33.33
2017-09-12T02:42:23.967Z,31.03
2017-09-12T02:44:52.187Z,57.73
2017-09-12T02:47:21.167Z,32.10
2017-09-12T02:49:50.459Z,46.67
2017-09-12T02:52:19.436Z,37.23
2017-09-12T02:54:47.692Z,36.53
2017-09-12T02:57:16.466Z,41.30
2017-09-12T02:59:49.735Z,38.33
2017-09-12T03:02:18.867Z,53.37
2017-09-12T03:04:47.107Z,50.07
2017-09-12T03:07:16.091Z,52.67
2017-09-12T03:09:45.827Z,51.47
2017-09-12T03:12:14.567Z,41.87
2017-09-12T03:14:43.402Z,46.70
2017-09-12T03:17:12.298Z,54.37
2017-09-12T03:19:41.123Z,52.93
2017-09-12T03:22:09.799Z,41.63
2017-09-12T03:24:39.047Z,52.30
2017-09-12T03:27:08.530Z,56.83
2017-09-12T03:29:37.413Z,69.27
2017-09-12T03:32:06.439Z,59.47
2017-09-12T03:34:35.930Z,50.43
2017-09-12T03:37:04.820Z,39.60
2017-09-12T03:39:34.015Z,44.27
2017-09-12T03:42:02.855Z,62.10
2017-09-12T03:44:31.686Z,54.37
2017-09-12T03:47:00.380Z,62.33
2017-09-12T03:49:28.926Z,48.93
2017-09-12T03:51:57.554Z,39.03
2017-09-12T03:54:26.755Z,54.87
2017-09-12T03:56:55.751Z,44.67
2017-09-12T03:59:25.056Z,44.00
2017-09-12T04:01:53.956Z,56.63
2017-09-12T04:04:22.783Z,48.30
2017-09-12T04:06:51.118Z,49.97
2017-09-12T04:09:19.907Z,50.03
2017-09-12T04:11:48.695Z,48.47
2017-09-12T04:14:17.483Z,52.17
2017-09-12T04:16:46.579Z,53.97
2017-09-12T04:19:15.458Z,61.77
2017-09-12T04:21:44.160Z,56.93
2017-09-12T04:24:13.871Z,42.33
2017-09-12T04:26:42.764Z,58.10
2017-09-12T04:29:11.598Z,45.17
2017-09-12T04:31:40.696Z,49.30
2017-09-12T04:34:09.635Z,42.20
2017-09-12T04:36:38.251Z,55.10
2017-09-12T04:39:08.038Z,36.93
2017-09-12T04:41:36.926Z,39.17
2017-09-12T04:44:05.751Z,37.87
2017-09-12T04:46:35.639Z,41.53
2017-09-12T04:49:04.518Z,45.03
2017-09-12T04:51:33.208Z,42.93
2017-09-12T04:54:01.910Z,44.73
2017-09-12T04:56:30.799Z,55.07
2017-09-12T04:58:59.687Z,55.83
2017-09-12T05:01:28.886Z,50.10
2017-09-12T05:03:57.678Z,57.77
2017-09-12T05:06:26.515Z,53.30
2017-09-12T05:08:55.612Z,53.33
2017-09-12T05:11:24.547Z,59.90
2017-09-12T05:13:53.171Z,68.73
2017-09-12T05:16:22.855Z,62.50
2017-09-12T05:18:51.732Z,59.60
2017-09-12T05:21:19.959Z,63.00
2017-09-12T05:23:49.494Z,59.37
2017-09-12T05:26:17.743Z,64.50
2017-09-12T05:28:47.158Z,54.80
2017-09-12T05:31:15.491Z,52.17
2017-09-12T05:33:44.302Z,51.20
2017-09-12T05:36:13.787Z,51.33
2017-09-12T05:38:42.728Z,48.87
2017-09-12T05:41:11.665Z,53.83
2017-09-12T05:43:40.553Z,45.10
2017-09-12T05:46:09.258Z,46.13
2017-09-12T05:48:38.743Z,51.58
2017-09-12T05:51:07.532Z,43.60
2017-09-12T05:53:36.291Z,52.13
2017-09-12T05:56:05.022Z,39.80
2017-09-12T05:58:34.431Z,38.78
2017-09-12T06:01:03.226Z,41.25
2017-09-12T06:03:33.007Z,43.42
2017-09-12T06:06:01.286Z,45.47
2017-09-12T06:08:30.207Z,50.13
2017-09-12T06:10:59.048Z,47.70
2017-09-12T06:13:27.770Z,40.97
2017-09-12T06:15:56.603Z,45.00
2017-09-12T06:18:26.191Z,47.03
2017-09-12T06:20:54.544Z,40.67
2017-09-12T06:23:23.359Z,36.70
2017-09-12T06:25:52.039Z,39.80
2017-09-12T06:28:20.775Z,39.73
2017-09-12T06:30:49.780Z,43.93
2017-09-12T06:33:18.709Z,44.13
2017-09-12T06:35:47.334Z,44.27
2017-09-12T06:38:17.011Z,38.47
2017-09-12T06:40:45.784Z,44.92
2017-09-12T06:43:14.011Z,44.70
2017-09-12T06:45:43.492Z,46.53
2017-09-12T06:48:12.330Z,45.40
2017-09-12T06:50:41.059Z,51.17
2017-09-12T06:53:09.544Z,39.05
2017-09-12T06:55:38.169Z,31.42
2017-09-12T06:58:06.666Z,40.25
2017-09-12T07:00:35.616Z,44.25
2017-09-12T07:03:04.248Z,37.58
2017-09-12T07:05:33.271Z,36.35
2017-09-12T07:08:02.043Z,44.17
2017-09-12T07:10:30.716Z,38.50
2017-09-12T07:12:59.463Z,43.60
2017-09-12T07:15:28.971Z,51.07
2017-09-12T07:17:57.644Z,31.23
2017-09-12T07:20:26.443Z,52.30
2017-09-12T07:22:55.283Z,50.23
2017-09-12T07:25:24.205Z,39.63
2017-09-12T07:27:52.836Z,49.27
2017-09-12T07:30:22.565Z,42.30
2017-09-12T07:32:51.455Z,47.97
2017-09-12T07:35:20.150Z,47.50
2017-09-12T07:37:48.895Z,32.80
2017-09-12T07:40:17.590Z,36.93
2017-09-12T07:42:47.006Z,32.07
2017-09-12T07:45:16.898Z,32.27
2017-09-12T07:47:45.643Z,48.10
2017-09-12T07:50:14.560Z,28.00
2017-09-12T07:52:43.537Z,36.60
2017-09-12T07:55:12.027Z,29.70
2017-09-12T07:57:40.744Z,35.67
2017-09-12T08:00:15.052Z,39.47
2017-09-12T08:02:43.567Z,29.53
2017-09-12T08:05:12.215Z,27.27
2017-09-12T08:07:41.340Z,41.70
2017-09-12T08:10:10.759Z,36.07
2017-09-12T08:12:40.107Z,39.80
2017-09-12T08:15:10.920Z,25.80
2017-09-12T08:17:39.440Z,34.73
2017-09-12T08:20:08.235Z,31.63
2017-09-12T08:22:36.675Z,41.40
2017-09-12T08:25:05.342Z,31.03
2017-09-12T08:27:34.904Z,27.33
2017-09-12T08:30:03.223Z,39.83
2017-09-12T08:32:32.199Z,35.03
2017-09-12T08:35:00.419Z,36.27
2017-09-12T08:37:28.718Z,23.93
2017-09-12T08:39:56.951Z,38.07
2017-09-12T08:42:26.066Z,34.17
2017-09-12T08:44:54.501Z,40.63
2017-09-12T08:47:22.719Z,40.33
2017-09-12T08:49:50.945Z,38.33
2017-09-12T08:52:19.254Z,36.20
2017-09-12T08:54:48.231Z,36.63
2017-09-12T08:57:16.425Z,29.93
2017-09-12T08:59:46.145Z,41.97
2017-09-12T09:02:15.474Z,26.63
2017-09-12T09:04:43.772Z,34.13
2017-09-12T09:07:12.100Z,39.63
2017-09-12T09:09:41.257Z,30.70
2017-09-12T09:12:09.445Z,38.67
2017-09-12T09:14:37.688Z,30.10
2017-09-12T09:17:06.487Z,21.00
2017-09-12T09:19:35.329Z,40.43
2017-09-12T09:22:05.172Z,65.13
2017-09-12T09:24:33.332Z,58.47
2017-09-12T09:27:02.692Z,33.20
2017-09-12T09:29:31.656Z,47.47
2017-09-12T09:32:00.404Z,45.50
2017-09-12T09:34:29.752Z,33.40
2017-09-12T09:36:58.776Z,56.77
2017-09-12T09:39:26.940Z,40.83
2017-09-12T09:41:56.316Z,36.30
2017-09-12T09:44:25.134Z,44.33
2017-09-12T09:46:53.324Z,34.47
2017-09-12T09:49:22.082Z,35.73
2017-09-12T09:51:51.140Z,38.03
2017-09-12T09:54:20.718Z,53.20
2017-09-12T09:56:49.473Z,38.53
2017-09-12T09:59:17.712Z,33.20
2017-09-12T10:01:47.295Z,35.63
2017-09-12T10:04:16.232Z,44.00
2017-09-12T10:06:45.165Z,37.30
2017-09-12T10:09:14.184Z,40.30
2017-09-12T10:11:43.180Z,41.73
2017-09-12T10:14:12.008Z,37.27
2017-09-12T10:16:40.408Z,30.90
2017-09-12T10:19:09.013Z,45.77
2017-09-12T10:21:37.800Z,45.27
2017-09-12T10:24:06.472Z,45.90
2017-09-12T10:26:35.116Z,43.07
2017-09-12T10:29:04.912Z,43.90
2017-09-12T10:31:33.631Z,39.63
2017-09-12T10:34:02.442Z,48.63
2017-09-12T10:36:31.120Z,46.67
2017-09-12T10:38:59.765Z,57.03
2017-09-12T10:41:28.384Z,50.17
2017-09-12T10:43:58.071Z,44.40
2017-09-12T10:46:27.324Z,47.97
2017-09-12T10:48:55.928Z,42.87
2017-09-12T10:51:24.708Z,55.00
2017-09-12T10:53:52.761Z,54.47
2017-09-12T10:56:21.400Z,62.00
2017-09-12T10:58:50.172Z,42.93
2017-09-12T11:01:18.905Z,58.97
2017-09-12T11:03:47.360Z,60.17
2017-09-12T11:06:16.120Z,55.43
2017-09-12T11:08:44.799Z,62.83
2017-09-12T11:11:13.171Z,68.33
2017-09-12T11:13:42.204Z,57.00
2017-09-12T11:16:10.867Z,67.23
2017-09-12T11:18:39.684Z,59.97
2017-09-12T11:21:08.548Z,56.57
2017-09-12T11:23:37.321Z,56.57
2017-09-12T11:26:05.808Z,57.83
2017-09-12T11:28:34.420Z,60.27
2017-09-12T11:31:03.052Z,56.97
2017-09-12T11:33:31.456Z,52.83
2017-09-12T11:36:00.876Z,60.83
2017-09-12T11:38:29.359Z,45.23
2017-09-12T11:40:58.045Z,55.10
2017-09-12T11:43:26.821Z,55.87
2017-09-12T11:45:55.308Z,55.87
2017-09-12T11:48:23.932Z,63.33
2017-09-12T11:50:53.313Z,66.37
2017-09-12T11:53:21.852Z,53.43
2017-09-12T11:55:50.666Z,48.07
2017-09-12T11:58:19.227Z,54.23
2017-09-12T12:00:47.752Z,65.70
2017-09-12T12:03:16.432Z,54.47
2017-09-12T12:05:45.284Z,66.37
2017-09-12T12:08:14.661Z,62.03
2017-09-12T12:10:43.302Z,64.40
2017-09-12T12:13:12.411Z,54.37
2017-09-12T12:15:41.507Z,59.53
2017-09-12T12:18:10.136Z,61.13
2017-09-12T12:20:39.821Z,55.17
2017-09-12T12:23:08.799Z,48.73
2017-09-12T12:25:37.032Z,54.07
2017-09-12T12:28:05.972Z,49.33
2017-09-12T12:30:34.767Z,59.83
2017-09-12T12:33:03.708Z,58.43
2017-09-12T12:35:32.655Z,52.57
2017-09-12T12:38:01.536Z,53.73
2017-09-12T12:40:29.779Z,56.13
2017-09-12T12:42:58.715Z,50.17
2017-09-12T12:45:27.511Z,49.60
2017-09-12T12:47:56.718Z,64.43
2017-09-12T12:50:25.802Z,47.10
2017-09-12T12:52:54.044Z,62.23
2017-09-12T12:55:22.279Z,42.70
2017-09-12T12:57:51.822Z,52.27
2017-09-12T13:00:20.503Z,47.33
2017-09-12T13:02:49.239Z,43.40
2017-09-12T13:05:18.335Z,64.80
2017-09-12T13:07:47.113Z,55.70
2017-09-12T13:10:15.635Z,61.03
2017-09-12T13:12:45.529Z,51.33
2017-09-12T13:15:14.931Z,42.73
2017-09-12T13:17:44.355Z,44.30
2017-09-12T13:20:13.991Z,52.20
2017-09-12T13:22:42.820Z,57.93
2017-09-12T13:25:11.058Z,52.50
2017-09-12T13:27:39.907Z,48.33
2017-09-12T13:30:08.131Z,51.03
2017-09-12T13:32:36.776Z,42.63
2017-09-12T13:35:05.756Z,64.53
2017-09-12T13:37:34.552Z,47.80
2017-09-12T13:40:02.795Z,61.30
2017-09-12T13:42:31.735Z,46.03
2017-09-12T13:45:00.567Z,51.07
2017-09-12T13:47:29.252Z,51.07
2017-09-12T13:49:58.291Z,49.10
2017-09-12T13:52:27.139Z,50.63
2017-09-12T13:54:56.019Z,50.20
2017-09-12T13:57:25.955Z,42.63
2017-09-12T13:59:54.645Z,60.00
2017-09-12T14:02:23.466Z,61.97
2017-09-12T14:04:52.888Z,51.63
2017-09-12T14:07:22.308Z,48.10
2017-09-12T14:09:52.036Z,51.17
2017-09-12T14:12:21.027Z,56.37
2017-09-12T14:14:49.861Z,51.10
2017-09-12T14:17:18.511Z,55.43
2017-09-12T14:19:48.187Z,56.50
2017-09-12T14:22:17.683Z,39.27
2017-09-12T14:24:47.147Z,57.60
2017-09-12T14:27:16.145Z,54.60
2017-09-12T14:29:44.883Z,45.97
2017-09-12T14:32:14.447Z,45.23
2017-09-12T14:34:43.269Z,48.73
2017-09-12T14:37:11.952Z,60.83
2017-09-12T14:39:40.843Z,40.87
2017-09-12T14:42:09.890Z,43.30
2017-09-12T14:44:38.405Z,40.10
2017-09-12T14:47:07.012Z,44.40
2017-09-12T14:49:35.904Z,39.90
2017-09-12T14:52:04.791Z,43.93
2017-09-12T14:54:33.631Z,46.67
2017-09-12T14:57:02.334Z,48.77
2017-09-12T14:59:31.254Z,38.47
2017-09-12T15:02:00.819Z,51.27
2017-09-12T15:04:29.649Z,50.30
2017-09-12T15:06:58.281Z,54.43
2017-09-12T15:09:27.804Z,43.57
2017-09-12T15:11:56.298Z,42.77
2017-09-12T15:14:24.816Z,56.10
2017-09-12T15:16:53.855Z,57.30
2017-09-12T15:19:22.997Z,52.03
2017-09-12T15:21:51.680Z,47.83
2017-09-12T15:24:19.915Z,49.10
2017-09-12T15:26:48.975Z,50.03
2017-09-12T15:29:17.203Z,40.30
2017-09-12T15:31:45.868Z,57.93
2017-09-12T15:34:15.596Z,48.03
2017-09-12T15:36:44.492Z,46.53
2017-09-12T15:39:13.177Z,53.30
2017-09-12T15:41:42.755Z,46.27
2017-09-12T15:44:10.799Z,42.47
2017-09-12T15:46:40.279Z,45.37
2017-09-12T15:49:08.928Z,50.33
2017-09-12T15:51:38.088Z,46.00
2017-09-12T15:54:06.588Z,51.17
2017-09-12T15:56:35.391Z,42.17
2017-09-12T15:59:03.464Z,49.20
2017-09-12T16:01:31.916Z,55.83
2017-09-12T16:04:00.939Z,39.50
2017-09-12T16:06:29.664Z,54.97
2017-09-12T16:08:59.036Z,48.53
2017-09-12T16:11:27.896Z,40.20
2017-09-12T16:13:56.652Z,50.87
2017-09-12T16:16:25.055Z,45.13
2017-09-12T16:18:53.893Z,34.83
2017-09-12T16:21:23.051Z,43.60
2017-09-12T16:23:52.300Z,46.20
2017-09-12T16:26:21.756Z,40.33
2017-09-12T16:28:49.807Z,51.90
2017-09-12T16:31:18.449Z,42.33
2017-09-12T16:33:46.675Z,46.20
2017-09-12T16:36:15.195Z,39.97
2017-09-12T16:38:44.528Z,42.23
2017-09-12T16:41:14.079Z,43.87
2017-09-12T16:43:43.643Z,33.30
2017-09-12T16:46:13.401Z,44.80
2017-09-12T16:48:42.034Z,39.30
2017-09-12T16:51:11.249Z,44.80
2017-09-12T16:53:41.329Z,36.33
2017-09-12T16:56:09.968Z,43.70
2017-09-12T16:58:38.371Z,42.23
2017-09-12T17:01:07.254Z,38.10
2017-09-12T17:03:35.874Z,47.17
2017-09-12T17:06:04.509Z,39.97
2017-09-12T17:08:32.747Z,46.63
2017-09-12T17:11:00.877Z,44.20
2017-09-12T17:13:29.621Z,50.50
2017-09-12T17:15:59.225Z,54.00
2017-09-12T17:18:27.941Z,42.40
2017-09-12T17:20:55.996Z,39.67
2017-09-12T17:23:25.550Z,58.50
2017-09-12T17:25:54.315Z,47.67
2017-09-12T17:28:22.797Z,52.20
2017-09-12T17:30:51.496Z,37.57
2017-09-12T17:33:20.024Z,39.83
2017-09-12T17:35:48.753Z,42.63
2017-09-12T17:38:18.413Z,54.97
2017-09-12T17:40:46.514Z,39.20
2017-09-12T17:43:15.370Z,41.07
2017-09-12T17:45:44.243Z,34.03
2017-09-12T17:48:12.989Z,53.23
2017-09-12T17:50:42.277Z,44.93
2017-09-12T17:53:11.048Z,43.00
2017-09-12T17:55:39.984Z,44.10
2017-09-12T17:58:08.725Z,40.37
2017-09-12T18:00:37.415Z,45.63
2017-09-12T18:03:05.502Z,44.87
2017-09-12T18:05:34.339Z,42.73
2017-09-12T18:08:03.360Z,44.43
2017-09-12T18:10:31.835Z,38.63
2017-09-12T18:13:00.445Z,45.03
2017-09-12T18:15:29.441Z,52.67
2017-09-12T18:17:58.180Z,44.00
2017-09-12T18:20:27.068Z,36.53
2017-09-12T18:22:56.098Z,50.93
2017-09-12T18:25:24.577Z,44.10
2017-09-12T18:27:54.296Z,44.50
2017-09-12T18:30:23.294Z,51.50
2017-09-12T18:32:51.805Z,43.27
2017-09-12T18:35:20.436Z,42.93
2017-09-12T18:37:49.265Z,41.00
2017-09-12T18:40:17.328Z,42.17
2017-09-12T18:42:45.916Z,45.23
2017-09-12T18:45:14.098Z,43.30
2017-09-12T18:47:42.676Z,40.50
2017-09-12T18:50:11.360Z,35.23
2017-09-12T18:52:40.213Z,42.50
2017-09-12T18:55:08.676Z,37.83
2017-09-12T18:57:38.199Z,40.57
2017-09-12T19:00:06.427Z,47.30
2017-09-12T19:02:35.010Z,33.57
2017-09-12T19:05:03.473Z,45.40
2017-09-12T19:07:32.990Z,39.07
2017-09-12T19:10:01.880Z,38.03
2017-09-12T19:12:30.832Z,43.97
2017-09-12T19:15:00.625Z,37.13
2017-09-12T19:17:29.445Z,42.73
2017-09-12T19:19:57.991Z,46.77
2017-09-12T19:22:26.811Z,42.17
2017-09-12T19:24:56.183Z,40.33
2017-09-12T19:27:24.901Z,44.97
2017-09-12T19:29:54.176Z,39.33
2017-09-12T19:32:22.816Z,39.57
2017-09-12T19:34:51.299Z,45.47
2017-09-12T19:37:19.882Z,42.37
2017-09-12T19:39:49.259Z,41.10
2017-09-12T19:42:17.792Z,39.43
2017-09-12T19:44:46.019Z,37.57
2017-09-12T19:47:15.364Z,39.50
2017-09-12T19:49:43.412Z,44.50
2017-09-12T19:52:12.360Z,43.80
2017-09-12T19:54:41.076Z,44.83
2017-09-12T19:57:10.348Z,42.97
2017-09-12T19:59:39.276Z,42.07
2017-09-12T20:02:08.065Z,32.70
2017-09-12T20:04:36.130Z,41.57
2017-09-12T20:07:04.968Z,43.50
2017-09-12T20:09:33.580Z,41.67
2017-09-12T20:12:02.285Z,41.37
2017-09-12T20:14:31.943Z,41.07
2017-09-12T20:17:00.723Z,41.63
2017-09-12T20:19:29.213Z,35.00
2017-09-12T20:21:58.155Z,46.07
2017-09-12T20:24:27.709Z,35.57
2017-09-12T20:26:56.139Z,37.27
2017-09-12T20:29:25.871Z,44.07
2017-09-12T20:31:54.908Z,40.40
2017-09-12T20:34:30.376Z,47.00
2017-09-12T20:36:59.000Z,41.57
2017-09-12T20:39:27.420Z,49.60
2017-09-12T20:41:56.147Z,38.40
2017-09-12T20:44:24.726Z,32.33
2017-09-12T20:46:53.340Z,35.03
2017-09-12T20:49:22.296Z,43.57
2017-09-12T20:51:50.688Z,42.53
2017-09-12T20:54:19.851Z,37.27
2017-09-12T20:56:48.548Z,40.57
2017-09-12T20:59:17.256Z,41.83
2017-09-12T21:01:45.875Z,38.50
2017-09-12T21:04:15.347Z,42.23
2017-09-12T21:06:43.966Z,46.37
2017-09-12T21:09:12.378Z,54.93
2017-09-12T21:11:41.080Z,52.20
2017-09-12T21:14:09.688Z,51.00
2017-09-12T21:16:38.512Z,49.63
2017-09-12T21:19:07.224Z,41.97
2017-09-12T21:21:35.756Z,46.57
2017-09-12T21:24:04.909Z,57.83
2017-09-12T21:26:33.616Z,41.63
2017-09-12T21:29:02.220Z,67.60
2017-09-12T21:31:30.947Z,44.47
2017-09-12T21:34:00.120Z,48.87
2017-09-12T21:36:36.092Z,45.80
2017-09-12T21:39:05.850Z,45.17
2017-09-12T21:41:34.523Z,40.00
2017-09-12T21:44:03.005Z,45.20
2017-09-12T21:46:31.324Z,46.57
2017-09-12T21:49:00.257Z,39.53
2017-09-12T21:51:28.664Z,37.90
2017-09-12T21:53:58.596Z,47.63
2017-09-12T21:56:27.159Z,56.27
2017-09-12T21:58:55.693Z,46.20
2017-09-12T22:01:25.250Z,42.77
2017-09-12T22:03:53.800Z,51.17
2017-09-12T22:06:22.597Z,52.47
2017-09-12T22:08:51.676Z,40.97
2017-09-12T22:11:20.769Z,43.37
2017-09-12T22:13:49.871Z,54.37
2017-09-12T22:16:19.536Z,49.00
2017-09-12T22:18:47.913Z,56.43
2017-09-12T22:21:16.407Z,56.87
2017-09-12T22:23:45.221Z,48.20
2017-09-12T22:26:13.967Z,42.30
2017-09-12T22:28:42.503Z,57.07
2017-09-12T22:31:11.744Z,55.57
2017-09-12T22:33:40.259Z,52.57
2017-09-12T22:36:09.267Z,42.47
2017-09-12T22:38:38.034Z,46.40
2017-09-12T22:41:06.602Z,48.03
2017-09-12T22:43:35.983Z,51.50
2017-09-12T22:46:04.795Z,48.23
2017-09-12T22:48:33.456Z,43.00
2017-09-12T22:51:03.000Z,47.63
2017-09-12T22:53:31.958Z,51.83
2017-09-12T22:56:01.332Z,50.13
2017-09-12T22:58:30.048Z,46.17
2017-09-12T23:00:58.300Z,53.87
2017-09-12T23:03:26.864Z,47.30
2017-09-12T23:05:55.501Z,52.63
2017-09-12T23:08:23.640Z,48.53
2017-09-12T23:10:52.224Z,50.83
2017-09-12T23:13:20.970Z,49.77
2017-09-12T23:15:49.543Z,40.40
2017-09-12T23:18:18.161Z,49.27
2017-09-12T23:20:46.774Z,55.13
2017-09-12T23:23:15.596Z,53.67
2017-09-12T23:25:44.960Z,60.80
2017-09-12T23:28:13.588Z,56.40
2017-09-12T23:30:42.219Z,46.67
2017-09-12T23:33:10.796Z,45.90
2017-09-12T23:35:39.373Z,53.83
2017-09-12T23:38:08.343Z,61.47
2017-09-12T23:40:37.043Z,60.00
2017-09-12T23:43:05.657Z,61.43
2017-09-12T23:45:34.445Z,56.53
2017-09-12T23:48:03.116Z,62.23
2017-09-12T23:50:31.168Z,58.13
2017-09-12T23:52:59.915Z,51.53
2017-09-12T23:55:29.189Z,53.50
2017-09-12T23:57:57.797Z,45.13
